Terminal Aerodrome Forecast
Issued by NWS

Current Version | Previous Version | Text Only | Print | Product List | Glossary On
Versions: 1 2 3 4 5 6 7 8 9 10 11 12 13 14
000
FTUS42 KJAX 282326
TAFCRG
TAF
KCRG 282326Z 2900/2924 09009KT P6SM FEW030 SCT250
     FM290200 09005KT P6SM SCT250
     FM291400 08009G16KT P6SM SCT030 SCT250
     FM291700 08010G18KT P6SM SCT040 SCT250=

USA.gov is the U.S. government's official web portal to all federal, state and local government web resources and services.